Time;durP1;ratioP1;P1;durP2;ratioP2;P2;SDS_P1;SDS_P2;PMS_P1;PMS_P2;Temp;Humidity;BMP_temperature;BMP_pressure;BME280_temperature;BME280_humidity;BME280_pressure;Samples;Min_cycle;Max_cycle;Signal;HPM_P1;HPM_P2
2022/07/05 00:00:15;;;;;;;;;;;;;;;;;;5014524;28;1397;-74
2022/07/05 00:02:43;;;;;;;;;;;;;;;;;;5014626;28;797;-75
2022/07/05 00:05:09;;;;;;;;;;;;;;;;;;5014258;28;917;-75
2022/07/05 00:07:36;;;;;;;;;;;;;;;;;;5014110;28;1060;-72
2022/07/05 00:10:02;;;;;;;;;;;;;;;;;;5014144;28;1325;-72
2022/07/05 00:12:30;;;;;;;;;;;;;;;;;;5014460;28;1059;-72
2022/07/05 00:14:56;;;;;;;;;;;;;;;;;;5014321;28;961;-72
2022/07/05 00:17:22;;;;;;;;;;;;;;;;;;5013552;28;1976;-73
2022/07/05 00:19:50;;;;;;;;;;;;;;;;;;5014086;28;1302;-72
2022/07/05 00:22:16;;;;;;;;;;;;;;;;;;5014138;28;918;-73
2022/07/05 00:24:42;;;;;;;;;;;;;;;;;;5012773;28;1136;-72
2022/07/05 00:27:08;;;;;;;;;;;;;;;;;;5012017;28;1168;-73
2022/07/05 00:29:35;;;;;;;;;;;;;;;;;;5013632;28;1305;-72
2022/07/05 00:32:01;;;;;;;;;;;;;;;;;;5013829;28;913;-72
2022/07/05 00:34:27;;;;;;;;;;;;;;;;;;5012773;28;1180;-73
2022/07/05 00:36:55;;;;;;;;;;;;;;;;;;5011997;28;1914;-73
2022/07/05 00:39:21;;;;;;;;;;;;;;;;;;5014019;28;1395;-73
2022/07/05 00:41:47;;;;;;;;;;;;;;;;;;5014123;28;787;-73
2022/07/05 00:44:14;;;;;;;;;;;;;;;;;;5013725;28;1054;-73
2022/07/05 00:46:42;;;;;;;;;;;;;;;;;;5013183;28;830;-73
2022/07/05 00:49:08;;;;;;;;;;;;;;;;;;5011816;28;1277;-73
2022/07/05 00:51:35;;;;;;;;;;;;;;;;;;5012501;28;926;-73
2022/07/05 00:54:03;;;;;;;;;;;;;;;;;;5012439;28;1271;-73
2022/07/05 00:56:29;;;;;;;;;;;;;;;;;;5012735;28;1982;-73
2022/07/05 00:58:55;;;;;;;;;;;;;;;;;;5011567;28;1446;-73
2022/07/05 01:01:21;;;;;;;;;;;;;;;;;;5012124;28;1290;-73
2022/07/05 01:03:47;;;;;;;;;;;;;;;;;;5011930;28;1310;-72
2022/07/05 01:06:14;;;;;;;;;;;;;;;;;;5011190;28;1508;-72
2022/07/05 01:08:41;;;;;;;;;;;;;;;;;;5011426;28;1340;-73
2022/07/05 01:11:08;;;;;;;;;;;;;;;;;;5013146;28;952;-73
2022/07/05 01:13:34;;;;;;;;;;;;;;;;;;5011954;28;1033;-73
2022/07/05 01:16:01;;;;;;;;;;;;;;;;;;5011787;28;1980;-72
2022/07/05 01:18:27;;;;;;;;;;;;;;;;;;5010895;28;1191;-72
2022/07/05 01:20:53;;;;;;;;;;;;;;;;;;5011739;28;1321;-73
2022/07/05 01:23:21;;;;;;;;;;;;;;;;;;5011707;28;1334;-73
2022/07/05 01:25:48;;;;;;;;;;;;;;;;;;5011589;28;1259;-73
2022/07/05 01:28:14;;;;;;;;;;;;;;;;;;5012049;28;768;-72
2022/07/05 01:30:41;;;;;;;;;;;;;;;;;;5012912;28;1384;-72
2022/07/05 01:33:07;;;;;;;;;;;;;;;;;;5012672;28;1001;-73
2022/07/05 01:35:34;;;;;;;;;;;;;;;;;;5010554;28;1538;-73
2022/07/05 01:38:00;;;;;;;;;;;;;;;;;;5012001;28;1911;-73
2022/07/05 01:40:28;;;;;;;;;;;;;;;;;;5011335;28;1326;-72
2022/07/05 01:42:54;;;;;;;;;;;;;;;;;;5011240;28;1305;-73
2022/07/05 01:48:01;;;;;;;;;;;;;;;;;;5011118;28;1605;-73
2022/07/05 01:50:27;;;;;;;;;;;;;;;;;;5012511;28;1394;-74
2022/07/05 01:52:53;;;;;;;;;;;;;;;;;;5012270;28;901;-73
2022/07/05 01:55:19;;;;;;;;;;;;;;;;;;5011207;28;1140;-73
2022/07/05 01:57:47;;;;;;;;;;;;;;;;;;5010207;28;1918;-72
2022/07/05 02:00:14;;;;;;;;;;;;;;;;;;5012070;28;1407;-72
2022/07/05 02:02:40;;;;;;;;;;;;;;;;;;5009308;28;2019;-73
2022/07/05 02:05:06;;;;;;;;;;;;;;;;;;5011885;28;1146;-72
2022/07/05 02:07:33;;;;;;;;;;;;;;;;;;5009902;28;1731;-73
2022/07/05 02:10:00;;;;;;;;;;;;;;;;;;5010467;28;1334;-74
2022/07/05 02:12:26;;;;;;;;;;;;;;;;;;5012000;28;718;-74
2022/07/05 02:14:54;;;;;;;;;;;;;;;;;;5027229;28;1306;-74
2022/07/05 02:17:21;;;;;;;;;;;;;;;;;;5010978;28;1975;-74
2022/07/05 02:19:52;;;;;;;;;;;;;;;;;;5026992;28;1344;-74
2022/07/05 02:22:19;;;;;;;;;;;;;;;;;;5010324;28;1196;-74
2022/07/05 02:24:45;;;;;;;;;;;;;;;;;;5010527;28;1203;-74
2022/07/05 02:27:20;;;;;;;;;;;;;;;;;;5009426;28;1425;-74
2022/07/05 02:29:47;;;;;;;;;;;;;;;;;;5011424;28;1299;-74
2022/07/05 02:32:16;;;;;;;;;;;;;;;;;;5010177;28;1350;-74
2022/07/05 02:34:43;;;;;;;;;;;;;;;;;;5026720;28;1373;-72
2022/07/05 02:37:10;;;;;;;;;;;;;;;;;;5025519;28;1910;-74
2022/07/05 02:39:36;;;;;;;;;;;;;;;;;;5011215;28;1400;-74
2022/07/05 02:42:04;;;;;;;;;;;;;;;;;;5026652;28;1316;-74
2022/07/05 02:44:31;;;;;;;;;;;;;;;;;;5010276;28;1315;-72
2022/07/05 02:46:58;;;;;;;;;;;;;;;;;;5024965;28;1479;-74
2022/07/05 02:49:28;;;;;;;;;;;;;;;;;;5026063;28;1342;-74
2022/07/05 02:51:54;;;;;;;;;;;;;;;;;;5026649;28;1227;-73
2022/07/05 02:54:21;;;;;;;;;;;;;;;;;;5026450;28;1192;-74
2022/07/05 02:56:48;;;;;;;;;;;;;;;;;;5025512;28;1914;-74
2022/07/05 02:59:15;;;;;;;;;;;;;;;;;;5026125;28;1455;-74
2022/07/05 03:01:42;;;;;;;;;;;;;;;;;;5011676;28;806;-74
2022/07/05 03:04:12;;;;;;;;;;;;;;;;;;5026450;28;1141;-74
2022/07/05 03:06:45;;;;;;;;;;;;;;;;;;5025739;28;1285;-73
2022/07/05 03:09:11;;;;;;;;;;;;;;;;;;5009631;28;1446;-73
2022/07/05 03:11:38;;;;;;;;;;;;;;;;;;5026892;28;1203;-73
2022/07/05 03:14:06;;;;;;;;;;;;;;;;;;5010611;28;1455;-74
2022/07/05 03:16:33;;;;;;;;;;;;;;;;;;5009232;28;1895;-74
2022/07/05 03:19:00;;;;;;;;;;;;;;;;;;5026160;28;1332;-74
2022/07/05 03:21:27;;;;;;;;;;;;;;;;;;5026517;28;1345;-74
2022/07/05 03:23:54;;;;;;;;;;;;;;;;;;5026332;28;1192;-73
2022/07/05 03:26:20;;;;;;;;;;;;;;;;;;5025338;28;1653;-74
2022/07/05 03:28:47;;;;;;;;;;;;;;;;;;5026149;28;1325;-73
2022/07/05 03:31:14;;;;;;;;;;;;;;;;;;5009875;28;1540;-74
2022/07/05 03:33:42;;;;;;;;;;;;;;;;;;5009802;28;1191;-74
2022/07/05 03:36:11;;;;;;;;;;;;;;;;;;5007302;28;1354;-73
2022/07/05 03:38:39;;;;;;;;;;;;;;;;;;5007296;28;1976;-74
2022/07/05 03:41:07;;;;;;;;;;;;;;;;;;5008980;28;1350;-75
2022/07/05 03:43:33;;;;;;;;;;;;;;;;;;5009432;28;1452;-74
2022/07/05 03:46:00;;;;;;;;;;;;;;;;;;5026240;28;1863;-75
2022/07/05 03:48:29;;;;;;;;;;;;;;;;;;5011674;28;1400;-75
2022/07/05 03:50:56;;;;;;;;;;;;;;;;;;5012164;28;1482;-75
2022/07/05 03:53:22;;;;;;;;;;;;;;;;;;5026331;28;1329;-75
2022/07/05 03:55:49;;;;;;;;;;;;;;;;;;5025250;28;1442;-76
2022/07/05 03:58:16;;;;;;;;;;;;;;;;;;5007702;28;1915;-75
2022/07/05 04:00:44;;;;;;;;;;;;;;;;;;5010524;28;1561;-73
2022/07/05 04:03:14;;;;;;;;;;;;;;;;;;5010389;28;1499;-75
2022/07/05 04:05:43;;;;;;;;;;;;;;;;;;5009310;28;1302;-75
2022/07/05 04:08:10;;;;;;;;;;;;;;;;;;5011396;28;1500;-75
2022/07/05 04:10:41;;;;;;;;;;;;;;;;;;5013014;28;1510;-75
2022/07/05 04:13:07;;;;;;;;;;;;;;;;;;5014011;28;1430;-75
2022/07/05 04:15:35;;;;;;;;;;;;;;;;;;5030889;28;675;-75
2022/07/05 04:18:03;;;;;;;;;;;;;;;;;;5011850;28;1914;-73
2022/07/05 04:20:33;;;;;;;;;;;;;;;;;;5012448;28;1434;-74
2022/07/05 04:23:00;;;;;;;;;;;;;;;;;;5013196;28;1312;-75
2022/07/05 04:25:26;;;;;;;;;;;;;;;;;;5018823;28;1396;-75
2022/07/05 04:28:00;;;;;;;;;;;;;;;;;;5012217;28;1254;-74
2022/07/05 04:30:26;;;;;;;;;;;;;;;;;;5029300;28;1314;-75
2022/07/05 04:32:57;;;;;;;;;;;;;;;;;;5029335;28;1387;-74
2022/07/05 04:35:23;;;;;;;;;;;;;;;;;;5028984;28;1384;-75
2022/07/05 04:37:51;;;;;;;;;;;;;;;;;;5028577;28;1973;-75
2022/07/05 04:40:19;;;;;;;;;;;;;;;;;;5012614;28;1321;-72
2022/07/05 04:42:45;;;;;;;;;;;;;;;;;;5029323;28;1764;-73
2022/07/05 04:45:13;;;;;;;;;;;;;;;;;;5028731;28;1588;-73
2022/07/05 04:47:40;;;;;;;;;;;;;;;;;;5028281;28;1387;-74
2022/07/05 04:50:09;;;;;;;;;;;;;;;;;;5028856;28;1322;-73
2022/07/05 04:52:35;;;;;;;;;;;;;;;;;;5011693;28;1386;-74
2022/07/05 04:55:01;;;;;;;;;;;;;;;;;;5013361;28;786;-74
2022/07/05 04:57:28;;;;;;;;;;;;;;;;;;5027993;28;1914;-72
2022/07/05 04:59:54;;;;;;;;;;;;;;;;;;5013344;28;1328;-73
2022/07/05 05:02:20;;;;;;;;;;;;;;;;;;5013119;28;1072;-72
2022/07/05 05:04:46;;;;;;;;;;;;;;;;;;5004278;28;1148;-73
2022/07/05 05:07:14;;;;;;;;;;;;;;;;;;5000697;28;1231;-74
2022/07/05 05:09:40;;;;;;;;;;;;;;;;;;5009315;28;1329;-73
2022/07/05 05:12:06;;;;;;;;;;;;;;;;;;5013324;28;1127;-74
2022/07/05 05:14:32;;;;;;;;;;;;;;;;;;5013110;28;823;-74
2022/07/05 05:16:58;;;;;;;;;;;;;;;;;;5012712;28;1135;-73
2022/07/05 05:19:25;;;;;;;;;;;;;;;;;;5011620;28;1911;-74
2022/07/05 05:21:51;;;;;;;;;;;;;;;;;;5013316;28;1505;-71
2022/07/05 05:24:18;;;;;;;;;;;;;;;;;;5012747;28;870;-73
2022/07/05 05:26:45;;;;;;;;;;;;;;;;;;5012447;28;1130;-73
2022/07/05 05:29:11;;;;;;;;;;;;;;;;;;5012930;28;1411;-73
2022/07/05 05:31:37;;;;;;;;;;;;;;;;;;5044716;28;1288;-74
2022/07/05 05:34:03;;;;;;;;;;;;;;;;;;5000540;28;1180;-72
2022/07/05 05:36:29;;;;;;;;;;;;;;;;;;5003462;28;1244;-73
2022/07/05 05:38:55;;;;;;;;;;;;;;;;;;5012006;28;1974;-73
2022/07/05 05:41:23;;;;;;;;;;;;;;;;;;5012868;28;948;-75
2022/07/05 05:43:49;;;;;;;;;;;;;;;;;;5012759;28;787;-75
2022/07/05 05:46:15;;;;;;;;;;;;;;;;;;5010748;28;1270;-74
2022/07/05 05:48:42;;;;;;;;;;;;;;;;;;5012307;28;1329;-73
2022/07/05 05:51:08;;;;;;;;;;;;;;;;;;5012787;28;1099;-75
2022/07/05 05:53:34;;;;;;;;;;;;;;;;;;5011316;28;1140;-75
2022/07/05 05:56:00;;;;;;;;;;;;;;;;;;5012653;28;1067;-75
2022/07/05 05:58:28;;;;;;;;;;;;;;;;;;5010526;28;1936;-75
2022/07/05 06:00:54;;;;;;;;;;;;;;;;;;5012298;28;1306;-75
2022/07/05 06:03:20;;;;;;;;;;;;;;;;;;5012269;28;1095;-74
2022/07/05 06:05:46;;;;;;;;;;;;;;;;;;5012344;28;1063;-75
2022/07/05 06:08:13;;;;;;;;;;;;;;;;;;5010292;28;1151;-75
2022/07/05 06:10:39;;;;;;;;;;;;;;;;;;5011846;28;1338;-75
2022/07/05 06:13:06;;;;;;;;;;;;;;;;;;5010967;28;1142;-74
2022/07/05 06:15:33;;;;;;;;;;;;;;;;;;5012103;28;1519;-75
2022/07/05 06:17:59;;;;;;;;;;;;;;;;;;5011511;28;1914;-74
2022/07/05 06:20:28;;;;;;;;;;;;;;;;;;5012481;28;1266;-75
2022/07/05 06:22:54;;;;;;;;;;;;;;;;;;5012382;28;1240;-75
2022/07/05 06:25:20;;;;;;;;;;;;;;;;;;5012407;28;1074;-74
2022/07/05 06:27:47;;;;;;;;;;;;;;;;;;5011279;28;957;-75
2022/07/05 06:30:14;;;;;;;;;;;;;;;;;;5011507;28;1368;-75
2022/07/05 06:32:42;;;;;;;;;;;;;;;;;;5011656;28;1076;-74
2022/07/05 06:35:09;;;;;;;;;;;;;;;;;;5011660;28;1127;-75
2022/07/05 06:37:42;;;;;;;;;;;;;;;;;;5011264;28;1971;-75
2022/07/05 06:40:09;;;;;;;;;;;;;;;;;;5011430;28;1325;-74
2022/07/05 06:42:35;;;;;;;;;;;;;;;;;;5012023;28;580;-75
2022/07/05 06:45:03;;;;;;;;;;;;;;;;;;5010514;28;1277;-74
2022/07/05 06:47:29;;;;;;;;;;;;;;;;;;5009563;28;1172;-73
2022/07/05 06:49:59;;;;;;;;;;;;;;;;;;5011360;28;1235;-73
2022/07/05 06:52:25;;;;;;;;;;;;;;;;;;5010108;28;1148;-74
2022/07/05 06:54:51;;;;;;;;;;;;;;;;;;5011598;28;1274;-74
2022/07/05 06:57:19;;;;;;;;;;;;;;;;;;5009709;28;1434;-74
2022/07/05 06:59:46;;;;;;;;;;;;;;;;;;5011170;28;1977;-74
2022/07/05 07:02:12;;;;;;;;;;;;;;;;;;5011268;28;962;-75
2022/07/05 07:04:38;;;;;;;;;;;;;;;;;;5011586;28;1138;-75
2022/07/05 07:09:17;;;;;;;;;;;;;;;;;;5010802;28;755;-74
2022/07/05 07:09:51;;;;;;;;;;;;;;;;;;5009294;28;1331;-74
2022/07/05 07:12:17;;;;;;;;;;;;;;;;;;5011283;28;1117;-74
2022/07/05 07:14:43;;;;;;;;;;;;;;;;;;5011463;28;1004;-75
2022/07/05 07:17:09;;;;;;;;;;;;;;;;;;5010534;28;1111;-74
2022/07/05 07:19:35;;;;;;;;;;;;;;;;;;5009497;28;1914;-74
2022/07/05 07:22:02;;;;;;;;;;;;;;;;;;5011367;28;858;-74
2022/07/05 07:24:29;;;;;;;;;;;;;;;;;;5011437;28;885;-76
2022/07/05 07:27:06;;;;;;;;;;;;;;;;;;5010578;28;1111;-75
2022/07/05 07:29:32;;;;;;;;;;;;;;;;;;5010725;28;1410;-74
2022/07/05 07:31:59;;;;;;;;;;;;;;;;;;5011187;28;945;-74
2022/07/05 07:34:25;;;;;;;;;;;;;;;;;;5013247;28;1424;-75
2022/07/05 07:36:52;;;;;;;;;;;;;;;;;;5014095;28;1576;-74
2022/07/05 07:39:18;;;;;;;;;;;;;;;;;;5014666;28;1911;-75
2022/07/05 07:41:45;;;;;;;;;;;;;;;;;;5014877;28;1131;-75
2022/07/05 07:44:12;;;;;;;;;;;;;;;;;;5014850;28;956;-75
2022/07/05 07:46:39;;;;;;;;;;;;;;;;;;5012826;28;1183;-76
2022/07/05 07:49:05;;;;;;;;;;;;;;;;;;5014801;28;1408;-75
2022/07/05 07:51:32;;;;;;;;;;;;;;;;;;5014647;28;1055;-76
2022/07/05 07:53:58;;;;;;;;;;;;;;;;;;5013433;28;1151;-74
2022/07/05 07:56:24;;;;;;;;;;;;;;;;;;5013839;28;1107;-75
2022/07/05 07:58:51;;;;;;;;;;;;;;;;;;5014571;28;1918;-74
2022/07/05 08:01:18;;;;;;;;;;;;;;;;;;5014456;28;1102;-73
2022/07/05 08:03:44;;;;;;;;;;;;;;;;;;5010060;28;2373;-75
2022/07/05 08:06:11;;;;;;;;;;;;;;;;;;5013538;28;941;-74
2022/07/05 08:08:37;;;;;;;;;;;;;;;;;;5014520;28;1126;-73
2022/07/05 08:11:03;;;;;;;;;;;;;;;;;;5014022;28;1339;-75
2022/07/05 08:13:30;;;;;;;;;;;;;;;;;;5014429;28;1076;-75
2022/07/05 08:15:57;;;;;;;;;;;;;;;;;;5014372;28;1200;-74
2022/07/05 08:21:35;;;;;;;;;;;;;;;;;;4972743;28;1159;-74
2022/07/05 08:24:02;;;;;;;;;;;;;;;;;;4972657;28;1081;-75
2022/07/05 08:26:28;;;;;;;;;;;;;;;;;;4993603;28;1072;-75
2022/07/05 08:28:54;;;;;;;;;;;;;;;;;;5029159;28;1432;-75
2022/07/05 08:31:22;;;;;;;;;;;;;;;;;;5012570;28;1166;-74
2022/07/05 08:33:48;;;;;;;;;;;;;;;;;;5013952;28;944;-74
2022/07/05 08:36:14;;;;;;;;;;;;;;;;;;5012057;28;1184;-74
2022/07/05 08:38:43;;;;;;;;;;;;;;;;;;5029104;28;1983;-75
2022/07/05 08:41:10;;;;;;;;;;;;;;;;;;5013498;28;1052;-76
2022/07/05 08:43:37;;;;;;;;;;;;;;;;;;5012155;28;1167;-76
2022/07/05 08:46:03;;;;;;;;;;;;;;;;;;5012793;28;941;-75
2022/07/05 08:48:31;;;;;;;;;;;;;;;;;;5011840;28;1140;-73
2022/07/05 08:50:57;;;;;;;;;;;;;;;;;;5013149;28;1302;-74
2022/07/05 08:53:23;;;;;;;;;;;;;;;;;;5012469;28;1116;-75
2022/07/05 08:55:49;;;;;;;;;;;;;;;;;;5013625;28;764;-74
2022/07/05 08:58:16;;;;;;;;;;;;;;;;;;5011628;28;1976;-74
2022/07/05 09:00:43;;;;;;;;;;;;;;;;;;5013279;28;1399;-73
2022/07/05 09:03:09;;;;;;;;;;;;;;;;;;5013436;28;858;-75
2022/07/05 09:05:38;;;;;;;;;;;;;;;;;;5013407;28;1123;-75
2022/07/05 09:08:04;;;;;;;;;;;;;;;;;;5011180;28;1129;-74
2022/07/05 09:10:31;;;;;;;;;;;;;;;;;;5012807;28;1260;-74
2022/07/05 09:12:57;;;;;;;;;;;;;;;;;;5013116;28;1067;-75
2022/07/05 09:15:23;;;;;;;;;;;;;;;;;;5013238;28;688;-74
2022/07/05 09:17:50;;;;;;;;;;;;;;;;;;5012495;28;866;-75
2022/07/05 09:20:17;;;;;;;;;;;;;;;;;;5011504;28;1922;-73
2022/07/05 09:22:45;;;;;;;;;;;;;;;;;;5013300;28;799;-74
2022/07/05 09:25:15;;;;;;;;;;;;;;;;;;5028447;28;941;-73
2022/07/05 09:27:47;;;;;;;;;;;;;;;;;;5011039;28;1156;-74
2022/07/05 09:30:13;;;;;;;;;;;;;;;;;;5012755;28;1297;-74
2022/07/05 09:32:39;;;;;;;;;;;;;;;;;;5012889;28;1461;-73
2022/07/05 09:35:19;;;;;;;;;;;;;;;;;;5012848;28;1123;-72
2022/07/05 09:37:47;;;;;;;;;;;;;;;;;;5011637;28;1632;-74
2022/07/05 09:40:13;;;;;;;;;;;;;;;;;;5012560;28;1983;-72
2022/07/05 09:42:39;;;;;;;;;;;;;;;;;;5012819;28;1110;-74
2022/07/05 09:45:06;;;;;;;;;;;;;;;;;;5012599;28;1059;-73
2022/07/05 09:47:32;;;;;;;;;;;;;;;;;;5012084;28;1120;-74
2022/07/05 09:50:03;;;;;;;;;;;;;;;;;;5012535;28;1309;-74
2022/07/05 09:52:30;;;;;;;;;;;;;;;;;;5012691;28;1047;-72
2022/07/05 09:55:04;;;;;;;;;;;;;;;;;;5012327;28;748;-73
2022/07/05 09:57:31;;;;;;;;;;;;;;;;;;5010299;28;897;-73
2022/07/05 10:00:01;;;;;;;;;;;;;;;;;;5011943;28;1969;-73
2022/07/05 10:02:37;;;;;;;;;;;;;;;;;;5010936;28;1112;-74
2022/07/05 10:05:10;;;;;;;;;;;;;;;;;;5012260;28;1055;-74
2022/07/05 10:07:36;;;;;;;;;;;;;;;;;;5011821;28;1028;-73
2022/07/05 10:10:04;;;;;;;;;;;;;;;;;;5010473;28;1290;-73
2022/07/05 10:12:30;;;;;;;;;;;;;;;;;;5012178;28;928;-73
2022/07/05 10:14:56;;;;;;;;;;;;;;;;;;5010860;28;1321;-73
2022/07/05 10:17:22;;;;;;;;;;;;;;;;;;5012515;28;807;-74
2022/07/05 10:19:49;;;;;;;;;;;;;;;;;;5011889;28;1906;-73
2022/07/05 10:22:15;;;;;;;;;;;;;;;;;;5012083;28;1159;-73
2022/07/05 10:24:41;;;;;;;;;;;;;;;;;;5010810;28;1271;-73
2022/07/05 10:27:09;;;;;;;;;;;;;;;;;;5011391;28;1138;-74
2022/07/05 10:29:35;;;;;;;;;;;;;;;;;;5011648;28;1408;-74
2022/07/05 10:32:02;;;;;;;;;;;;;;;;;;5011423;28;1064;-73
2022/07/05 10:34:29;;;;;;;;;;;;;;;;;;5011902;28;1124;-73
2022/07/05 10:36:55;;;;;;;;;;;;;;;;;;5009755;28;1176;-73
2022/07/05 10:39:23;;;;;;;;;;;;;;;;;;5010186;28;1918;-73
2022/07/05 10:41:50;;;;;;;;;;;;;;;;;;5010401;28;1122;-73
2022/07/05 10:44:27;;;;;;;;;;;;;;;;;;5011733;28;804;-73
2022/07/05 10:46:53;;;;;;;;;;;;;;;;;;5010989;28;1100;-74
2022/07/05 10:49:20;;;;;;;;;;;;;;;;;;5010964;28;1419;-74
2022/07/05 10:51:46;;;;;;;;;;;;;;;;;;5010200;28;1279;-74
2022/07/05 10:54:13;;;;;;;;;;;;;;;;;;5011480;28;1115;-74
2022/07/05 10:56:40;;;;;;;;;;;;;;;;;;5010926;28;1209;-74
2022/07/05 10:59:09;;;;;;;;;;;;;;;;;;5009992;28;1922;-73
2022/07/05 11:01:37;;;;;;;;;;;;;;;;;;5011680;28;882;-74
2022/07/05 11:04:16;;;;;;;;;;;;;;;;;;5011295;28;1064;-73
2022/07/05 11:06:43;;;;;;;;;;;;;;;;;;5010495;28;1484;-74
2022/07/05 11:09:16;;;;;;;;;;;;;;;;;;5009617;28;1356;-73
2022/07/05 11:11:42;;;;;;;;;;;;;;;;;;5010195;28;1108;-74
2022/07/05 11:14:29;;;;;;;;;;;;;;;;;;5010878;28;1064;-73
2022/07/05 11:17:11;;;;;;;;;;;;;;;;;;5010671;28;885;-73
2022/07/05 11:19:52;;;;;;;;;;;;;;;;;;5011261;28;1976;-74
2022/07/05 11:22:18;;;;;;;;;;;;;;;;;;5009222;28;1257;-73
2022/07/05 11:24:44;;;;;;;;;;;;;;;;;;5011233;28;878;-73
2022/07/05 11:27:11;;;;;;;;;;;;;;;;;;5010492;28;798;-73
2022/07/05 11:29:43;;;;;;;;;;;;;;;;;;5011296;28;1405;-73
2022/07/05 11:32:10;;;;;;;;;;;;;;;;;;5009924;28;1481;-73
2022/07/05 11:34:36;;;;;;;;;;;;;;;;;;5011206;28;1044;-73
2022/07/05 11:37:21;;;;;;;;;;;;;;;;;;5010475;28;918;-73
2022/07/05 11:39:47;;;;;;;;;;;;;;;;;;5010775;28;1923;-72
2022/07/05 11:42:19;;;;;;;;;;;;;;;;;;5010396;28;1530;-73
2022/07/05 11:44:46;;;;;;;;;;;;;;;;;;5010921;28;1110;-72
2022/07/05 11:47:13;;;;;;;;;;;;;;;;;;5010377;28;1076;-74
2022/07/05 11:49:39;;;;;;;;;;;;;;;;;;5010947;28;1385;-73
2022/07/05 11:52:05;;;;;;;;;;;;;;;;;;5010541;28;1005;-73
2022/07/05 11:54:33;;;;;;;;;;;;;;;;;;5011184;28;1191;-73
2022/07/05 11:57:00;;;;;;;;;;;;;;;;;;5008926;28;1251;-73
2022/07/05 11:59:26;;;;;;;;;;;;;;;;;;5009866;28;1922;-73
2022/07/05 12:01:52;;;;;;;;;;;;;;;;;;5009485;28;1346;-73
2022/07/05 12:04:22;;;;;;;;;;;;;;;;;;5010954;28;1068;-73
2022/07/05 12:06:49;;;;;;;;;;;;;;;;;;5010011;28;759;-73
2022/07/05 12:09:16;;;;;;;;;;;;;;;;;;5010739;28;1252;-73
2022/07/05 12:14:34;;;;;;;;;;;;;;;;;;5009629;28;1299;-74
2022/07/05 12:17:11;;;;;;;;;;;;;;;;;;5010150;28;1056;-73
2022/07/05 12:19:37;;;;;;;;;;;;;;;;;;5012366;28;1910;-73
2022/07/05 12:22:03;;;;;;;;;;;;;;;;;;5014046;28;1134;-72
2022/07/05 12:24:30;;;;;;;;;;;;;;;;;;5012999;28;1419;-73
2022/07/05 12:26:57;;;;;;;;;;;;;;;;;;5013439;28;758;-73
2022/07/05 12:29:23;;;;;;;;;;;;;;;;;;5013819;28;1406;-73
2022/07/05 12:32:00;;;;;;;;;;;;;;;;;;5013973;28;1060;-73
2022/07/05 12:34:26;;;;;;;;;;;;;;;;;;5014166;28;870;-73
2022/07/05 12:36:53;;;;;;;;;;;;;;;;;;5012001;28;1159;-73
2022/07/05 12:39:19;;;;;;;;;;;;;;;;;;5012632;28;1370;-71
2022/07/05 12:41:45;;;;;;;;;;;;;;;;;;5013440;28;1921;-73
2022/07/05 12:44:13;;;;;;;;;;;;;;;;;;5012270;28;1208;-72
2022/07/05 12:46:39;;;;;;;;;;;;;;;;;;5013277;28;775;-71
2022/07/05 12:49:06;;;;;;;;;;;;;;;;;;5013543;28;1345;-73
2022/07/05 12:51:33;;;;;;;;;;;;;;;;;;5013837;28;1122;-72
2022/07/05 12:59:31;;;;;;;;;;;;;;;;;;5013869;28;1330;-75
2022/07/05 13:01:58;;;;;;;;;;;;;;;;;;5012123;28;1116;-74
2022/07/05 13:04:24;;;;;;;;;;;;;;;;;;5011976;28;1142;-74
2022/07/05 13:06:51;;;;;;;;;;;;;;;;;;5012560;28;1122;-73
2022/07/05 13:09:17;;;;;;;;;;;;;;;;;;5012968;28;1270;-74
2022/07/05 13:11:44;;;;;;;;;;;;;;;;;;5013161;28;965;-74
2022/07/05 13:14:10;;;;;;;;;;;;;;;;;;5012071;28;1258;-72
2022/07/05 13:16:37;;;;;;;;;;;;;;;;;;5012855;28;1051;-74
2022/07/05 13:19:08;;;;;;;;;;;;;;;;;;5012895;28;1430;-74
2022/07/05 13:21:34;;;;;;;;;;;;;;;;;;5012914;28;2039;-73
2022/07/05 13:24:00;;;;;;;;;;;;;;;;;;5012951;28;1103;-74
2022/07/05 13:26:26;;;;;;;;;;;;;;;;;;5011076;28;1265;-74
2022/07/05 13:28:52;;;;;;;;;;;;;;;;;;5011572;28;1326;-73
2022/07/05 13:31:19;;;;;;;;;;;;;;;;;;5012108;28;1405;-74
2022/07/05 13:33:47;;;;;;;;;;;;;;;;;;5012355;28;1384;-74
2022/07/05 13:36:13;;;;;;;;;;;;;;;;;;5012215;28;1083;-73
2022/07/05 13:38:39;;;;;;;;;;;;;;;;;;5012756;28;1040;-75
2022/07/05 13:41:06;;;;;;;;;;;;;;;;;;5012076;28;1997;-74
2022/07/05 13:43:32;;;;;;;;;;;;;;;;;;5012490;28;1084;-73
2022/07/05 13:45:58;;;;;;;;;;;;;;;;;;5012593;28;811;-74
2022/07/05 13:48:24;;;;;;;;;;;;;;;;;;5011804;28;1056;-75
2022/07/05 13:50:52;;;;;;;;;;;;;;;;;;5012323;28;1424;-74
2022/07/05 13:53:18;;;;;;;;;;;;;;;;;;5012221;28;1048;-74
2022/07/05 13:55:44;;;;;;;;;;;;;;;;;;5012854;28;1068;-73
2022/07/05 13:58:10;;;;;;;;;;;;;;;;;;5010582;28;1435;-75
2022/07/05 14:00:36;;;;;;;;;;;;;;;;;;5010930;28;1906;-75
2022/07/05 14:03:03;;;;;;;;;;;;;;;;;;5011960;28;862;-74
2022/07/05 14:05:29;;;;;;;;;;;;;;;;;;5010498;28;1981;-74
2022/07/05 14:07:56;;;;;;;;;;;;;;;;;;5011224;28;1234;-75
2022/07/05 14:10:22;;;;;;;;;;;;;;;;;;5011669;28;1306;-74
2022/07/05 14:12:49;;;;;;;;;;;;;;;;;;5010933;28;1313;-74
2022/07/05 14:15:15;;;;;;;;;;;;;;;;;;5012183;28;1139;-74
2022/07/05 14:17:41;;;;;;;;;;;;;;;;;;5027046;28;1495;-74
2022/07/05 14:20:09;;;;;;;;;;;;;;;;;;5026972;28;1972;-75
2022/07/05 14:22:35;;;;;;;;;;;;;;;;;;5013663;28;1138;-74
2022/07/05 14:25:03;;;;;;;;;;;;;;;;;;5031713;28;945;-72
2022/07/05 14:27:29;;;;;;;;;;;;;;;;;;5030636;28;1079;-74
2022/07/05 14:29:55;;;;;;;;;;;;;;;;;;5031934;28;1302;-73
2022/07/05 14:32:22;;;;;;;;;;;;;;;;;;5031543;28;933;-72
2022/07/05 14:34:48;;;;;;;;;;;;;;;;;;5030332;28;1229;-75
2022/07/05 14:37:15;;;;;;;;;;;;;;;;;;5030921;28;1119;-74
2022/07/05 14:39:41;;;;;;;;;;;;;;;;;;5031392;28;1344;-75
2022/07/05 14:42:09;;;;;;;;;;;;;;;;;;5031400;28;2039;-74
2022/07/05 14:44:35;;;;;;;;;;;;;;;;;;5030162;28;1148;-74
2022/07/05 14:47:01;;;;;;;;;;;;;;;;;;5030864;28;817;-74
2022/07/05 14:49:27;;;;;;;;;;;;;;;;;;5030956;28;1419;-74
2022/07/05 14:51:54;;;;;;;;;;;;;;;;;;5031306;28;878;-75
2022/07/05 14:54:20;;;;;;;;;;;;;;;;;;5031086;28;1075;-75
2022/07/05 14:56:47;;;;;;;;;;;;;;;;;;5030567;28;1025;-75
2022/07/05 14:59:14;;;;;;;;;;;;;;;;;;5043496;28;1356;-73
2022/07/05 15:01:40;;;;;;;;;;;;;;;;;;5011600;28;1985;-73
2022/07/05 15:04:07;;;;;;;;;;;;;;;;;;5011535;28;1060;-73
2022/07/05 15:06:33;;;;;;;;;;;;;;;;;;5025902;28;1132;-74
2022/07/05 15:08:59;;;;;;;;;;;;;;;;;;5010683;28;1370;-72
2022/07/05 15:11:25;;;;;;;;;;;;;;;;;;5026328;28;1267;-73
2022/07/05 15:13:52;;;;;;;;;;;;;;;;;;5011302;28;1035;-74
2022/07/05 15:16:19;;;;;;;;;;;;;;;;;;5010611;28;933;-73
2022/07/05 15:18:45;;;;;;;;;;;;;;;;;;5026143;28;1410;-73
2022/07/05 15:21:11;;;;;;;;;;;;;;;;;;5026302;28;1910;-72
2022/07/05 15:23:38;;;;;;;;;;;;;;;;;;5026257;28;1247;-73
2022/07/05 15:26:04;;;;;;;;;;;;;;;;;;5011226;28;863;-73
2022/07/05 15:28:30;;;;;;;;;;;;;;;;;;5010678;28;857;-75
2022/07/05 15:30:56;;;;;;;;;;;;;;;;;;5011267;28;1293;-73
2022/07/05 15:33:28;;;;;;;;;;;;;;;;;;5010903;28;587;-73
2022/07/05 15:35:57;;;;;;;;;;;;;;;;;;5011116;28;906;-74
2022/07/05 15:38:23;;;;;;;;;;;;;;;;;;5025518;28;1111;-73
2022/07/05 15:40:49;;;;;;;;;;;;;;;;;;5011140;28;1899;-74
2022/07/05 15:43:15;;;;;;;;;;;;;;;;;;5009885;28;1306;-73
2022/07/05 15:45:42;;;;;;;;;;;;;;;;;;5010815;28;1507;-75
2022/07/05 15:48:08;;;;;;;;;;;;;;;;;;5010010;28;1550;-73
2022/07/05 15:50:35;;;;;;;;;;;;;;;;;;5010857;28;1310;-73
2022/07/05 15:53:02;;;;;;;;;;;;;;;;;;5009608;28;1251;-73
2022/07/05 15:55:28;;;;;;;;;;;;;;;;;;5014505;28;830;-74
2022/07/05 15:57:54;;;;;;;;;;;;;;;;;;5012684;28;1243;-73
2022/07/05 16:00:20;;;;;;;;;;;;;;;;;;5024414;28;1411;-73
2022/07/05 16:02:47;;;;;;;;;;;;;;;;;;5034413;28;1983;-74
2022/07/05 16:05:14;;;;;;;;;;;;;;;;;;5034401;28;1076;-74
2022/07/05 16:07:41;;;;;;;;;;;;;;;;;;5032336;28;1199;-73
2022/07/05 16:10:09;;;;;;;;;;;;;;;;;;5049060;28;1325;-73
2022/07/05 16:12:35;;;;;;;;;;;;;;;;;;5049441;28;1417;-73
2022/07/05 16:15:02;;;;;;;;;;;;;;;;;;5033369;28;1163;-74
2022/07/05 16:17:28;;;;;;;;;;;;;;;;;;5033467;28;790;-74
2022/07/05 16:19:54;;;;;;;;;;;;;;;;;;5047445;22;3585;-79
2022/07/05 16:22:20;;;;;;;;;;;;;;;;;;5016605;28;1915;-80
2022/07/05 16:24:48;;;;;;;;;;;;;;;;;;5036955;28;1092;-79
2022/07/05 16:27:14;;;;;;;;;;;;;;;;;;5036444;28;1065;-79
2022/07/05 16:29:40;;;;;;;;;;;;;;;;;;5035380;28;1417;-79
2022/07/05 16:32:07;;;;;;;;;;;;;;;;;;5035401;28;902;-79
2022/07/05 16:34:33;;;;;;;;;;;;;;;;;;5035048;28;1044;-79
2022/07/05 16:37:04;;;;;;;;;;;;;;;;;;5033921;28;1080;-81
2022/07/05 16:39:30;;;;;;;;;;;;;;;;;;5034902;28;1412;-78
2022/07/05 16:41:58;;;;;;;;;;;;;;;;;;5034235;28;1979;-77
2022/07/05 16:44:24;;;;;;;;;;;;;;;;;;5033993;28;1123;-79
2022/07/05 16:46:50;;;;;;;;;;;;;;;;;;5033812;28;882;-78
2022/07/05 16:49:16;;;;;;;;;;;;;;;;;;5034198;28;1366;-79
2022/07/05 16:51:42;;;;;;;;;;;;;;;;;;5033993;28;1068;-79
2022/07/05 16:54:09;;;;;;;;;;;;;;;;;;5034146;28;823;-78
2022/07/05 16:56:35;;;;;;;;;;;;;;;;;;5033302;28;1430;-78
2022/07/05 16:59:03;;;;;;;;;;;;;;;;;;5033733;28;1301;-79
2022/07/05 17:01:29;;;;;;;;;;;;;;;;;;5034428;28;1915;-79
2022/07/05 17:03:55;;;;;;;;;;;;;;;;;;5034236;28;858;-80
2022/07/05 17:06:21;;;;;;;;;;;;;;;;;;5032265;28;981;-79
2022/07/05 17:08:48;;;;;;;;;;;;;;;;;;5033606;28;1321;-79
2022/07/05 17:11:15;;;;;;;;;;;;;;;;;;5032589;28;1392;-77
2022/07/05 17:13:43;;;;;;;;;;;;;;;;;;5013537;28;1339;-77
2022/07/05 17:16:11;;;;;;;;;;;;;;;;;;5032984;28;1170;-77
2022/07/05 17:18:37;;;;;;;;;;;;;;;;;;5015284;28;1273;-78